createdAt,value
2018-07-03T00:02:57.764Z,72.50
2018-07-03T00:05:32.805Z,72.50
2018-07-03T00:08:07.817Z,72.50
2018-07-03T00:10:42.504Z,72.40
2018-07-03T00:13:17.155Z,72.60
2018-07-03T00:15:51.685Z,72.80
2018-07-03T00:18:26.462Z,72.90
2018-07-03T00:21:01.257Z,73.10
2018-07-03T00:23:36.185Z,73.30
2018-07-03T00:26:10.476Z,73.30
2018-07-03T00:28:45.459Z,73.30
2018-07-03T00:31:19.791Z,73.30
2018-07-03T00:33:55.043Z,73.50
2018-07-03T00:36:30.103Z,73.80
2018-07-03T00:39:07.607Z,73.80
2018-07-03T00:41:42.315Z,74.30
2018-07-03T00:44:16.876Z,74.10
2018-07-03T00:46:51.361Z,74.00
2018-07-03T00:49:26.066Z,74.30
2018-07-03T00:52:00.760Z,74.10
2018-07-03T00:54:35.643Z,74.90
2018-07-03T00:57:10.343Z,74.30
2018-07-03T01:00:02.382Z,74.40
2018-07-03T01:02:36.512Z,74.40
2018-07-03T01:05:11.269Z,74.40
2018-07-03T01:07:45.836Z,74.50
2018-07-03T01:10:20.286Z,74.60
2018-07-03T01:12:55.648Z,74.80
2018-07-03T01:15:30.401Z,74.80
2018-07-03T01:18:06.013Z,74.70
2018-07-03T01:20:40.612Z,74.60
2018-07-03T01:23:15.078Z,74.60
2018-07-03T01:25:49.777Z,74.40
2018-07-03T01:28:24.796Z,74.60
2018-07-03T01:30:59.150Z,74.70
2018-07-03T01:33:33.971Z,74.80
2018-07-03T01:38:42.768Z,74.90
2018-07-03T01:41:17.225Z,74.80
2018-07-03T01:43:52.064Z,74.90
2018-07-03T01:46:26.445Z,75.10
2018-07-03T01:49:01.407Z,75.10
2018-07-03T01:51:35.574Z,75.20
2018-07-03T01:54:10.475Z,75.10
2018-07-03T01:56:45.045Z,75.30
2018-07-03T01:59:19.645Z,75.30
2018-07-03T02:01:54.034Z,75.60
2018-07-03T02:04:28.755Z,75.70
2018-07-03T02:07:03.421Z,75.60
2018-07-03T02:09:38.037Z,75.70
2018-07-03T02:12:12.721Z,75.90
2018-07-03T02:14:47.545Z,75.80
2018-07-03T02:17:22.698Z,75.70
2018-07-03T02:19:57.217Z,75.70
2018-07-03T02:22:32.026Z,75.40
2018-07-03T02:25:06.345Z,75.40
2018-07-03T02:27:40.920Z,75.40
2018-07-03T02:30:15.681Z,75.20
2018-07-03T02:32:50.867Z,75.20
2018-07-03T02:35:25.041Z,75.40
2018-07-03T02:38:00.089Z,75.50
2018-07-03T02:40:34.365Z,75.60
2018-07-03T02:43:09.472Z,75.80
2018-07-03T02:45:43.656Z,75.60
2018-07-03T02:48:18.458Z,75.50
2018-07-03T02:50:52.935Z,75.50
2018-07-03T02:53:27.457Z,75.60
2018-07-03T02:56:01.981Z,75.70
2018-07-03T02:58:36.698Z,75.80
2018-07-03T03:01:11.299Z,75.90
2018-07-03T03:03:45.917Z,75.80
2018-07-03T03:06:20.669Z,75.60
2018-07-03T03:11:29.694Z,75.90
2018-07-03T03:14:04.555Z,75.90
2018-07-03T03:16:38.914Z,75.80
2018-07-03T03:19:13.945Z,75.90
2018-07-03T03:21:48.461Z,75.80
2018-07-03T03:24:23.049Z,75.90
2018-07-03T03:26:57.796Z,76.20
2018-07-03T03:29:32.768Z,76.10
2018-07-03T03:32:07.057Z,75.90
2018-07-03T03:34:41.707Z,76.20
2018-07-03T03:37:16.450Z,76.00
2018-07-03T03:39:51.383Z,76.00
2018-07-03T03:42:25.707Z,75.90
2018-07-03T03:45:00.159Z,76.00
2018-07-03T03:47:34.870Z,76.10
2018-07-03T03:50:10.489Z,75.80
2018-07-03T03:52:44.832Z,75.70
2018-07-03T03:55:19.641Z,75.40
2018-07-03T03:57:54.297Z,75.30
2018-07-03T04:00:28.651Z,74.70
2018-07-03T04:03:03.227Z,75.10
2018-07-03T04:05:38.250Z,75.30
2018-07-03T04:08:12.628Z,75.60
2018-07-03T04:10:47.306Z,75.60
2018-07-03T04:13:21.973Z,75.90
2018-07-03T04:15:56.946Z,76.00
2018-07-03T04:18:34.279Z,75.80
2018-07-03T04:21:08.843Z,75.40
2018-07-03T04:23:44.572Z,75.10
2018-07-03T04:26:19.531Z,74.60
2018-07-03T04:28:54.156Z,74.60
2018-07-03T04:31:28.637Z,74.40
2018-07-03T04:34:03.455Z,74.10
2018-07-03T04:36:38.257Z,73.50
2018-07-03T04:39:12.692Z,72.90
2018-07-03T04:41:47.591Z,73.10
2018-07-03T04:44:21.805Z,72.70
2018-07-03T04:46:57.102Z,72.10
2018-07-03T04:49:31.271Z,71.60
2018-07-03T04:52:05.960Z,70.10
2018-07-03T04:54:40.406Z,70.00
2018-07-03T04:57:14.925Z,70.10
2018-07-03T04:59:49.604Z,71.00
2018-07-03T05:02:24.482Z,70.80
2018-07-03T05:04:58.904Z,70.50
2018-07-03T05:07:33.728Z,70.60
2018-07-03T05:10:08.581Z,69.70
2018-07-03T05:12:43.037Z,70.20
2018-07-03T05:15:17.753Z,70.60
2018-07-03T05:17:52.220Z,69.90
2018-07-03T05:20:27.198Z,68.80
2018-07-03T05:23:02.374Z,67.90
2018-07-03T05:25:37.254Z,65.80
2018-07-03T05:28:12.013Z,64.60
2018-07-03T05:30:46.393Z,65.00
2018-07-03T05:33:21.704Z,63.40
2018-07-03T05:35:56.656Z,62.30
2018-07-03T05:38:31.574Z,62.00
2018-07-03T05:41:06.345Z,61.10
2018-07-03T05:43:41.096Z,61.80
2018-07-03T05:46:15.525Z,59.30
2018-07-03T05:48:50.105Z,58.80
2018-07-03T05:51:24.861Z,57.60
2018-07-03T05:53:59.868Z,53.60
2018-07-03T05:56:34.032Z,50.50
2018-07-03T05:59:08.860Z,49.70
2018-07-03T06:01:43.315Z,49.30
2018-07-03T06:04:18.294Z,49.80
2018-07-03T06:06:52.474Z,50.70
2018-07-03T06:09:27.731Z,51.70
2018-07-03T06:12:02.826Z,51.40
2018-07-03T06:14:37.551Z,52.60
2018-07-03T06:17:12.256Z,52.10
2018-07-03T06:19:47.119Z,50.40
2018-07-03T06:22:21.606Z,50.30
2018-07-03T06:24:56.580Z,53.40
2018-07-03T06:27:30.877Z,51.40
2018-07-03T06:30:05.761Z,51.80
2018-07-03T06:32:40.147Z,52.60
2018-07-03T06:35:15.164Z,54.30
2018-07-03T06:37:49.814Z,54.10
2018-07-03T06:40:24.161Z,53.40
2018-07-03T06:42:58.822Z,52.90
2018-07-03T06:45:33.566Z,53.90
2018-07-03T06:48:08.384Z,55.50
2018-07-03T06:50:43.225Z,54.70
2018-07-03T06:53:17.962Z,54.40
2018-07-03T06:55:52.892Z,55.10
2018-07-03T06:58:27.084Z,53.10
2018-07-03T07:01:01.777Z,53.20
2018-07-03T07:03:36.205Z,54.10
2018-07-03T07:06:10.800Z,52.80
2018-07-03T07:08:45.522Z,52.00
2018-07-03T07:11:20.286Z,51.90
2018-07-03T07:13:54.935Z,52.50
2018-07-03T07:16:29.583Z,51.70
2018-07-03T07:19:04.167Z,50.30
2018-07-03T07:21:39.015Z,51.10
2018-07-03T07:24:13.623Z,48.90
2018-07-03T07:26:48.611Z,49.20
2018-07-03T07:29:23.568Z,48.90
2018-07-03T07:31:58.379Z,47.80
2018-07-03T07:34:32.991Z,47.60
2018-07-03T07:37:07.684Z,45.20
2018-07-03T07:39:42.721Z,44.60
2018-07-03T07:42:17.099Z,43.20
2018-07-03T07:44:51.726Z,43.50
2018-07-03T07:47:26.339Z,40.20
2018-07-03T07:50:00.878Z,39.30
2018-07-03T07:52:35.714Z,39.80
2018-07-03T07:55:10.070Z,40.20
2018-07-03T07:57:44.691Z,39.10
2018-07-03T08:00:19.381Z,37.70
2018-07-03T08:02:54.438Z,37.00
2018-07-03T08:05:28.731Z,37.00
2018-07-03T08:08:03.445Z,39.00
2018-07-03T08:10:38.075Z,39.30
2018-07-03T08:13:12.922Z,36.00
2018-07-03T08:15:47.922Z,36.30
2018-07-03T08:18:22.253Z,36.20
2018-07-03T08:20:56.739Z,36.90
2018-07-03T08:23:31.634Z,36.00
2018-07-03T08:26:06.638Z,35.80
2018-07-03T08:28:41.797Z,35.60
2018-07-03T08:31:16.521Z,35.50
2018-07-03T08:33:51.479Z,34.90
2018-07-03T08:36:25.743Z,34.30
2018-07-03T08:39:00.443Z,37.10
2018-07-03T08:41:34.961Z,36.30
2018-07-03T08:46:44.394Z,31.10
2018-07-03T08:49:19.020Z,30.80
2018-07-03T08:51:53.785Z,31.40
2018-07-03T08:54:28.677Z,31.60
2018-07-03T08:57:03.268Z,31.80
2018-07-03T08:59:37.824Z,30.80
2018-07-03T09:02:12.347Z,32.00
2018-07-03T09:04:47.061Z,31.40
2018-07-03T09:07:21.768Z,31.60
2018-07-03T09:09:56.541Z,32.40
2018-07-03T09:12:31.352Z,33.20
2018-07-03T09:15:06.811Z,33.30
2018-07-03T09:17:41.435Z,33.40
2018-07-03T09:20:16.083Z,31.90
2018-07-03T09:22:51.013Z,32.00
2018-07-03T09:25:25.625Z,33.30
2018-07-03T09:28:00.466Z,33.80
2018-07-03T09:30:34.915Z,33.50
2018-07-03T09:33:09.607Z,33.20
2018-07-03T09:35:44.143Z,36.10
2018-07-03T09:38:18.894Z,35.80
2018-07-03T09:40:53.696Z,35.30
2018-07-03T09:43:28.364Z,35.20
2018-07-03T09:46:03.038Z,35.60
2018-07-03T09:48:37.992Z,35.90
2018-07-03T09:51:12.323Z,34.40
2018-07-03T09:53:46.998Z,34.10
2018-07-03T09:56:21.891Z,35.00
2018-07-03T09:58:56.568Z,36.40
2018-07-03T10:01:31.481Z,36.20
2018-07-03T10:04:05.962Z,34.60
2018-07-03T10:06:41.057Z,32.40
2018-07-03T10:09:15.422Z,31.10
2018-07-03T10:11:50.024Z,33.00
2018-07-03T10:14:24.581Z,32.80
2018-07-03T10:16:59.244Z,36.40
2018-07-03T10:19:33.760Z,36.90
2018-07-03T10:22:08.540Z,41.10
2018-07-03T10:24:43.013Z,41.10
2018-07-03T10:27:17.537Z,41.10
2018-07-03T10:29:52.321Z,41.90
2018-07-03T10:32:27.167Z,32.40
2018-07-03T10:35:01.794Z,34.30
2018-07-03T10:37:36.196Z,34.40
2018-07-03T10:40:10.909Z,32.60
2018-07-03T10:42:45.570Z,33.10
2018-07-03T10:45:20.587Z,33.40
2018-07-03T10:47:55.032Z,34.20
2018-07-03T10:50:29.421Z,31.00
2018-07-03T10:53:04.271Z,33.00
2018-07-03T10:55:38.652Z,37.30
2018-07-03T10:58:13.514Z,38.60
2018-07-03T11:00:48.286Z,34.00
2018-07-03T11:03:23.182Z,32.50
2018-07-03T11:05:58.421Z,34.90
2018-07-03T11:08:32.604Z,38.40
2018-07-03T11:11:07.279Z,40.10
2018-07-03T11:16:16.442Z,40.00
2018-07-03T11:18:51.261Z,36.40
2018-07-03T11:21:25.824Z,38.00
2018-07-03T11:24:00.414Z,39.60
2018-07-03T11:26:36.232Z,40.70
2018-07-03T11:29:10.965Z,39.50
2018-07-03T11:31:45.374Z,37.60
2018-07-03T11:34:20.019Z,40.00
2018-07-03T11:36:54.806Z,38.10
2018-07-03T11:39:29.679Z,37.30
2018-07-03T11:42:04.125Z,38.60
2018-07-03T11:44:38.842Z,39.20
2018-07-03T11:47:13.766Z,38.40
2018-07-03T11:49:49.321Z,39.40
2018-07-03T11:52:24.188Z,41.40
2018-07-03T11:54:59.770Z,41.50
2018-07-03T11:57:35.121Z,40.20
2018-07-03T12:00:10.667Z,41.30
2018-07-03T12:02:45.163Z,41.20
2018-07-03T12:05:19.940Z,41.50
2018-07-03T12:07:54.703Z,41.20
2018-07-03T12:10:29.869Z,39.70
2018-07-03T12:13:04.823Z,41.60
2018-07-03T12:15:39.670Z,41.00
2018-07-03T12:18:19.799Z,41.70
2018-07-03T12:20:55.030Z,43.80
2018-07-03T12:23:30.307Z,44.20
2018-07-03T12:26:05.221Z,42.80
2018-07-03T12:28:39.607Z,43.60
2018-07-03T12:31:14.531Z,44.50
2018-07-03T12:33:49.072Z,43.00
2018-07-03T12:36:23.860Z,40.90
2018-07-03T12:38:58.647Z,41.60
2018-07-03T12:41:33.629Z,44.30
2018-07-03T12:44:08.711Z,44.10
2018-07-03T12:46:43.399Z,44.80
2018-07-03T12:49:18.046Z,43.00
2018-07-03T12:51:52.874Z,42.00
2018-07-03T12:54:27.420Z,42.90
2018-07-03T12:57:02.009Z,42.40
2018-07-03T12:59:36.542Z,41.60
2018-07-03T13:02:11.274Z,43.00
2018-07-03T13:04:46.098Z,43.50
2018-07-03T13:07:20.574Z,43.40
2018-07-03T13:09:55.258Z,41.20
2018-07-03T13:12:29.588Z,43.10
2018-07-03T13:15:04.687Z,43.60
2018-07-03T13:17:39.123Z,44.60
2018-07-03T13:22:48.067Z,43.80
2018-07-03T13:25:22.721Z,43.70
2018-07-03T13:27:57.420Z,42.90
2018-07-03T13:30:32.537Z,43.30
2018-07-03T13:33:06.877Z,43.90
2018-07-03T13:35:41.612Z,43.00
2018-07-03T13:38:16.375Z,43.80
2018-07-03T13:40:51.064Z,44.10
2018-07-03T13:43:25.246Z,45.10
2018-07-03T13:45:59.996Z,44.40
2018-07-03T13:48:34.524Z,44.00
2018-07-03T13:51:09.263Z,44.50
2018-07-03T13:53:43.754Z,44.60
2018-07-03T13:56:18.613Z,45.80
2018-07-03T13:58:53.019Z,46.10
2018-07-03T14:01:27.879Z,45.20
2018-07-03T14:04:02.227Z,43.50
2018-07-03T14:06:37.020Z,44.40
2018-07-03T14:09:11.544Z,44.80
2018-07-03T14:11:47.257Z,46.40
2018-07-03T14:14:22.112Z,46.70
2018-07-03T14:16:56.858Z,46.50
2018-07-03T14:19:31.283Z,47.00
2018-07-03T14:22:06.234Z,47.40
2018-07-03T14:24:40.988Z,47.50
2018-07-03T14:27:15.439Z,48.60
2018-07-03T14:29:50.104Z,48.60
2018-07-03T14:32:24.909Z,48.20
2018-07-03T14:34:59.609Z,47.70
2018-07-03T14:37:34.140Z,47.10
2018-07-03T14:40:08.878Z,47.70
2018-07-03T14:42:43.954Z,48.30
2018-07-03T14:45:19.231Z,48.70
2018-07-03T14:47:53.806Z,49.00
2018-07-03T14:50:28.281Z,49.80
2018-07-03T14:53:03.154Z,49.10
2018-07-03T14:55:37.813Z,50.10
2018-07-03T14:58:12.037Z,51.10
2018-07-03T15:00:46.622Z,51.60
2018-07-03T15:03:21.675Z,51.20
2018-07-03T15:05:55.772Z,52.70
2018-07-03T15:08:31.640Z,52.90
2018-07-03T15:11:06.442Z,50.70
2018-07-03T15:13:40.751Z,52.20
2018-07-03T15:16:15.392Z,52.90
2018-07-03T15:18:55.891Z,53.70
2018-07-03T15:21:30.949Z,54.50
2018-07-03T15:24:07.440Z,55.40
2018-07-03T15:26:42.413Z,56.50
2018-07-03T15:29:16.598Z,57.50
2018-07-03T15:31:51.549Z,58.50
2018-07-03T15:34:26.065Z,59.50
2018-07-03T15:37:01.062Z,59.50
2018-07-03T15:39:35.774Z,59.40
2018-07-03T15:42:10.198Z,59.40
2018-07-03T15:45:00.884Z,59.80
2018-07-03T15:47:35.582Z,60.70
2018-07-03T15:50:11.566Z,61.00
2018-07-03T15:52:45.787Z,60.90
2018-07-03T15:55:20.365Z,61.50
2018-07-03T15:57:55.100Z,61.20
2018-07-03T16:00:30.379Z,62.00
2018-07-03T16:05:32.589Z,61.90
2018-07-03T16:09:26.118Z,62.30
2018-07-03T16:12:01.169Z,62.20
2018-07-03T16:14:36.120Z,62.20
2018-07-03T16:17:10.347Z,61.60
2018-07-03T16:19:50.625Z,62.40
2018-07-03T16:22:25.634Z,62.20
2018-07-03T16:25:00.374Z,62.40
2018-07-03T16:27:35.296Z,62.40
2018-07-03T16:30:09.998Z,62.40
2018-07-03T16:32:44.910Z,62.80
2018-07-03T16:35:19.404Z,63.60
2018-07-03T16:37:54.334Z,62.20
2018-07-03T16:40:28.722Z,61.50
2018-07-03T16:43:03.516Z,60.80
2018-07-03T16:45:38.188Z,60.70
2018-07-03T16:48:13.354Z,61.60
2018-07-03T16:50:47.577Z,61.20
2018-07-03T16:53:22.288Z,61.00
2018-07-03T16:55:57.008Z,61.10
2018-07-03T16:58:31.759Z,60.90
2018-07-03T17:01:06.196Z,61.00
2018-07-03T17:03:40.966Z,61.10
2018-07-03T17:06:15.983Z,60.30
2018-07-03T17:08:51.148Z,60.30
2018-07-03T17:11:26.083Z,60.20
2018-07-03T17:14:00.931Z,60.20
2018-07-03T17:16:35.605Z,60.10
2018-07-03T17:19:16.007Z,60.10
2018-07-03T17:21:50.973Z,60.60
2018-07-03T17:24:26.091Z,60.20
2018-07-03T17:27:00.526Z,59.50
2018-07-03T17:29:35.338Z,59.00
2018-07-03T17:32:09.961Z,58.90
2018-07-03T17:34:44.734Z,58.70
2018-07-03T17:37:19.315Z,59.10
2018-07-03T17:42:57.182Z,59.40
2018-07-03T17:45:48.815Z,59.20
2018-07-03T17:48:23.135Z,59.80
2018-07-03T17:50:58.327Z,59.90
2018-07-03T17:53:32.896Z,59.80
2018-07-03T17:56:07.688Z,60.30
2018-07-03T17:58:42.147Z,60.60
2018-07-03T18:01:17.133Z,60.00
2018-07-03T18:03:51.705Z,60.30
2018-07-03T18:06:26.244Z,61.30
2018-07-03T18:09:00.943Z,61.40
2018-07-03T18:11:35.540Z,61.50
2018-07-03T18:14:10.449Z,61.90
2018-07-03T18:16:45.475Z,62.40
2018-07-03T18:19:54.350Z,61.60
2018-07-03T18:22:28.861Z,62.00
2018-07-03T18:25:03.558Z,62.40
2018-07-03T18:27:38.691Z,62.50
2018-07-03T18:30:13.621Z,63.20
2018-07-03T18:32:47.907Z,63.30
2018-07-03T18:35:22.951Z,63.70
2018-07-03T18:37:58.150Z,63.70
2018-07-03T18:40:32.814Z,63.70
2018-07-03T18:43:07.413Z,63.70
2018-07-03T18:45:41.803Z,63.60
2018-07-03T18:48:16.659Z,63.60
2018-07-03T18:50:51.136Z,64.40
2018-07-03T18:53:25.488Z,64.70
2018-07-03T18:56:00.037Z,65.40
2018-07-03T18:58:34.843Z,65.50
2018-07-03T19:01:09.168Z,65.90
2018-07-03T19:03:43.982Z,66.10
2018-07-03T19:06:18.549Z,66.30
2018-07-03T19:08:53.221Z,66.60
2018-07-03T19:11:27.867Z,66.90
2018-07-03T19:14:02.927Z,67.10
2018-07-03T19:16:37.216Z,67.30
2018-07-03T19:19:11.953Z,67.20
2018-07-03T19:21:46.652Z,67.60
2018-07-03T19:24:21.759Z,67.50
2018-07-03T19:26:56.189Z,67.90
2018-07-03T19:29:30.762Z,68.20
2018-07-03T19:32:05.501Z,68.40
2018-07-03T19:34:40.571Z,68.50
2018-07-03T19:37:15.657Z,68.60
2018-07-03T19:39:50.718Z,68.90
2018-07-03T19:42:24.915Z,69.00
2018-07-03T19:44:59.682Z,69.30
2018-07-03T19:47:34.457Z,69.60
2018-07-03T19:50:09.342Z,69.80
2018-07-03T19:52:43.746Z,70.20
2018-07-03T19:55:18.818Z,70.50
2018-07-03T19:57:53.134Z,70.70
2018-07-03T20:00:28.064Z,71.00
2018-07-03T20:03:03.981Z,71.40
2018-07-03T20:05:39.645Z,71.70
2018-07-03T20:08:14.405Z,72.10
2018-07-03T20:10:49.066Z,72.30
2018-07-03T20:13:23.952Z,72.50
2018-07-03T20:15:58.896Z,72.80
2018-07-03T20:18:33.831Z,73.00
2018-07-03T20:21:09.065Z,73.60
2018-07-03T20:23:44.765Z,73.70
2018-07-03T20:26:19.539Z,73.60
2018-07-03T20:28:53.890Z,74.10
2018-07-03T20:34:04.048Z,74.70
2018-07-03T20:36:38.879Z,74.80
2018-07-03T20:39:13.187Z,75.00
2018-07-03T20:41:47.818Z,75.30
2018-07-03T20:44:22.425Z,75.50
2018-07-03T20:46:57.734Z,75.60
2018-07-03T20:49:32.697Z,75.80
2018-07-03T20:52:07.430Z,75.90
2018-07-03T20:54:41.659Z,76.00
2018-07-03T20:57:16.840Z,76.20
2018-07-03T20:59:51.186Z,76.30
2018-07-03T21:02:25.766Z,76.40
2018-07-03T21:05:00.720Z,76.60
2018-07-03T21:07:35.485Z,76.70
2018-07-03T21:10:10.011Z,77.70
2018-07-03T21:12:44.908Z,76.90
2018-07-03T21:15:19.718Z,77.00
2018-07-03T21:17:54.459Z,77.00
2018-07-03T21:20:29.224Z,77.10
2018-07-03T21:23:03.903Z,77.20
2018-07-03T21:25:38.534Z,77.20
2018-07-03T21:28:13.345Z,77.30
2018-07-03T21:30:48.035Z,77.60
2018-07-03T21:33:22.375Z,77.70
2018-07-03T21:35:57.268Z,77.80
2018-07-03T21:38:31.896Z,78.00
2018-07-03T21:41:06.284Z,78.10
2018-07-03T21:43:40.942Z,78.20
2018-07-03T21:46:15.486Z,78.20
2018-07-03T21:48:50.194Z,78.30
2018-07-03T21:51:24.997Z,78.50
2018-07-03T21:53:59.651Z,78.50
2018-07-03T21:56:34.364Z,78.50
2018-07-03T21:59:09.353Z,78.80
2018-07-03T22:01:44.695Z,79.00
2018-07-03T22:04:19.847Z,79.10
2018-07-03T22:09:29.184Z,79.30
2018-07-03T22:12:04.014Z,79.40
2018-07-03T22:14:40.447Z,79.60
2018-07-03T22:17:15.145Z,79.80
2018-07-03T22:19:49.959Z,80.00
2018-07-03T22:22:24.593Z,80.00
2018-07-03T22:24:59.382Z,80.20
2018-07-03T22:27:33.990Z,80.40
2018-07-03T22:30:08.840Z,80.70
2018-07-03T22:32:43.583Z,80.70
2018-07-03T22:35:18.356Z,80.80
2018-07-03T22:37:53.025Z,80.90
2018-07-03T22:40:27.593Z,81.10
2018-07-03T22:43:02.215Z,81.10
2018-07-03T22:45:37.129Z,81.20
2018-07-03T22:48:11.802Z,81.40
2018-07-03T22:50:46.399Z,81.40
2018-07-03T22:53:21.076Z,81.40
2018-07-03T22:55:55.638Z,81.50
2018-07-03T22:58:30.513Z,82.10
2018-07-03T23:01:05.006Z,81.40
2018-07-03T23:03:39.384Z,81.40
2018-07-03T23:06:14.133Z,81.30
2018-07-03T23:08:48.815Z,81.20
2018-07-03T23:11:23.657Z,81.10
2018-07-03T23:13:58.046Z,81.00
2018-07-03T23:16:32.720Z,81.00
2018-07-03T23:19:07.683Z,80.80
2018-07-03T23:21:42.930Z,80.90
2018-07-03T23:24:18.016Z,80.90
2018-07-03T23:26:52.996Z,80.90
2018-07-03T23:29:27.361Z,80.90
2018-07-03T23:32:02.061Z,80.90
2018-07-03T23:34:36.665Z,80.90
2018-07-03T23:37:11.646Z,80.90
2018-07-03T23:39:46.047Z,81.00
2018-07-03T23:42:20.863Z,81.00
2018-07-03T23:44:55.703Z,81.00
2018-07-03T23:47:47.301Z,81.10
2018-07-03T23:50:39.288Z,81.10
2018-07-03T23:53:31.049Z,81.00
2018-07-03T23:56:22.973Z,81.00
2018-07-03T23:59:14.875Z,81.00
